Time;durP1;ratioP1;P1;durP2;ratioP2;P2;SDS_P1;SDS_P2;PMS_P1;PMS_P2;Temp;Humidity;BMP_temperature;BMP_pressure;BME280_temperature;BME280_humidity;BME280_pressure;Samples;Min_cycle;Max_cycle;Signal;HPM_P1;HPM_P2
2023/01/27 00:00:03;;;;;;;11.10;7.40;;;0.80;99.90;;;;;;5052361;28;20401;-66
2023/01/27 00:02:28;;;;;;;13.77;7.87;;;0.80;99.90;;;;;;5052908;28;20171;-67
2023/01/27 00:04:54;;;;;;;10.60;6.40;;;0.80;99.90;;;;;;5052221;28;20444;-66
2023/01/27 00:07:19;;;;;;;14.03;6.97;;;0.80;99.90;;;;;;5043739;28;20179;-66
2023/01/27 00:09:45;;;;;;;12.10;7.10;;;0.70;99.90;;;;;;5040745;28;20203;-66
2023/01/27 00:15:03;;;;;;;17.90;7.90;;;0.70;99.90;;;;;;5052577;28;20178;-66
2023/01/27 00:17:29;;;;;;;11.87;5.87;;;0.70;99.90;;;;;;5053706;28;20428;-66
2023/01/27 00:19:54;;;;;;;9.03;6.70;;;0.70;99.90;;;;;;5052964;28;20413;-66
2023/01/27 00:25:04;;;;;;;11.67;6.83;;;0.70;99.90;;;;;;5039637;28;20652;-65
2023/01/27 00:27:30;;;;;;;14.30;7.40;;;0.70;99.90;;;;;;5050369;28;20532;-67
2023/01/27 00:29:56;;;;;;;14.70;6.67;;;0.80;99.90;;;;;;5050337;28;20273;-68
2023/01/27 00:35:06;;;;;;;25.30;8.33;;;0.70;99.90;;;;;;5048161;28;20266;-65
2023/01/27 00:37:31;;;;;;;12.13;8.00;;;0.70;99.90;;;;;;5055348;28;20921;-66
2023/01/27 00:39:57;;;;;;;15.40;7.70;;;0.70;99.90;;;;;;5052506;28;20409;-66
2023/01/27 00:42:22;;;;;;;18.77;10.47;;;0.70;99.90;;;;;;5051095;28;20182;-66
2023/01/27 00:47:32;;;;;;;10.90;5.67;;;0.70;99.90;;;;;;5054751;28;20190;-65
2023/01/27 00:49:58;;;;;;;12.67;7.77;;;0.80;99.90;;;;;;5055589;28;20421;-67
2023/01/27 00:52:24;;;;;;;14.53;7.07;;;0.80;99.90;;;;;;5046341;28;20828;-66
2023/01/27 00:54:49;;;;;;;16.83;6.90;;;0.70;99.90;;;;;;5053433;28;20175;-66
2023/01/27 00:57:15;;;;;;;13.17;7.10;;;0.70;99.90;;;;;;5055030;28;20246;-65
2023/01/27 00:59:40;;;;;;;19.70;8.40;;;0.70;99.90;;;;;;5056643;28;20178;-66
2023/01/27 01:02:06;;;;;;;16.00;7.40;;;0.80;99.90;;;;;;5056993;28;20167;-67
2023/01/27 01:04:31;;;;;;;15.83;8.37;;;0.70;99.90;;;;;;5057627;28;20258;-65
2023/01/27 01:06:57;;;;;;;15.30;8.43;;;0.80;99.90;;;;;;5057018;28;20246;-65
2023/01/27 01:09:23;;;;;;;13.57;5.47;;;0.70;99.90;;;;;;5039031;28;20207;-66
2023/01/27 01:11:48;;;;;;;11.40;6.50;;;0.70;99.90;;;;;;5041240;28;20182;-64
2023/01/27 01:14:14;;;;;;;15.97;7.50;;;0.80;99.90;;;;;;5047769;28;20171;-66
2023/01/27 01:16:39;;;;;;;11.23;7.57;;;0.70;99.90;;;;;;5054048;28;20687;-66
2023/01/27 01:19:05;;;;;;;18.77;7.77;;;0.70;99.90;;;;;;5055773;28;20198;-66
2023/01/27 01:21:31;;;;;;;17.10;7.60;;;0.70;99.90;;;;;;5042156;28;20250;-66
2023/01/27 01:23:56;;;;;;;16.20;7.50;;;0.70;99.90;;;;;;5054529;28;20181;-67
2023/01/27 01:26:22;;;;;;;23.77;7.97;;;0.80;99.90;;;;;;5053687;28;20301;-67
2023/01/27 01:28:47;;;;;;;14.97;6.60;;;0.70;99.90;;;;;;5055355;28;20202;-68
2023/01/27 01:31:16;;;;;;;17.07;7.20;;;0.80;99.90;;;;;;5055558;28;20680;-67
2023/01/27 01:33:41;;;;;;;21.40;7.70;;;0.80;99.90;;;;;;5043292;28;20190;-66
2023/01/27 01:36:10;;;;;;;12.33;6.60;;;0.80;99.90;;;;;;5055639;28;20929;-66
2023/01/27 01:38:36;;;;;;;20.23;8.93;;;0.80;99.90;;;;;;5053942;28;20218;-66
2023/01/27 01:41:02;;;;;;;15.80;7.60;;;0.70;99.90;;;;;;5053564;28;20973;-66
2023/01/27 01:43:27;;;;;;;16.27;6.30;;;0.70;99.90;;;;;;5049539;28;20425;-66
2023/01/27 01:45:55;;;;;;;15.87;7.00;;;0.70;99.90;;;;;;5053000;28;20883;-67
2023/01/27 01:48:26;;;;;;;8.83;7.70;;;0.60;99.90;;;;;;5054340;28;20260;-67
2023/01/27 01:51:04;;;;;;;16.60;6.70;;;0.60;99.90;;;;;;5049819;28;20420;-66
2023/01/27 01:53:44;;;;;;;9.10;4.97;;;0.60;99.90;;;;;;5048678;28;20923;-66
2023/01/27 01:56:15;;;;;;;12.73;5.57;;;0.70;99.90;;;;;;5045254;28;20406;-66
2023/01/27 01:58:43;;;;;;;12.40;5.33;;;0.60;99.90;;;;;;5054377;28;20429;-66
2023/01/27 02:01:09;;;;;;;11.60;6.60;;;0.60;99.90;;;;;;5053456;28;20479;-67
2023/01/27 02:03:38;;;;;;;10.17;6.30;;;0.60;99.90;;;;;;5047498;28;20900;-66
2023/01/27 02:06:04;;;;;;;14.23;7.70;;;0.60;99.90;;;;;;5050287;28;20410;-66
2023/01/27 02:08:36;;;;;;;10.47;6.57;;;0.70;99.90;;;;;;5039689;28;20506;-65
2023/01/27 02:11:02;;;;;;;18.03;6.87;;;0.70;99.90;;;;;;5049161;28;20413;-65
2023/01/27 02:13:28;;;;;;;11.53;5.53;;;0.70;99.90;;;;;;5034837;28;20430;-65
2023/01/27 02:15:54;;;;;;;11.43;6.03;;;0.60;99.90;;;;;;5051390;28;20205;-65
2023/01/27 02:18:21;;;;;;;11.50;5.97;;;0.60;99.90;;;;;;5047503;28;20208;-66
2023/01/27 02:20:50;;;;;;;11.93;7.30;;;0.70;99.90;;;;;;5038850;28;20441;-65
2023/01/27 02:23:34;;;;;;;15.50;8.43;;;0.70;99.90;;;;;;5051144;28;20413;-65
2023/01/27 02:26:17;;;;;;;14.80;8.40;;;0.60;99.90;;;;;;5050392;28;20487;-65
2023/01/27 02:28:43;;;;;;;13.93;5.87;;;0.70;99.90;;;;;;5052699;28;20560;-68
2023/01/27 02:31:09;;;;;;;11.80;7.03;;;0.70;99.90;;;;;;5067333;23;20583;-69
2023/01/27 02:33:34;;;;;;;10.90;6.90;;;0.70;99.90;;;;;;5045407;28;20425;-69
2023/01/27 02:36:07;;;;;;;9.83;6.27;;;0.70;99.90;;;;;;5041127;28;20167;-69
2023/01/27 02:38:35;;;;;;;14.00;8.57;;;0.70;99.90;;;;;;5045954;28;20176;-69
2023/01/27 02:41:36;;;;;;;17.83;7.93;;;0.80;99.90;;;;;;5064148;28;20931;-69
2023/01/27 02:44:02;;;;;;;15.37;7.60;;;0.70;99.90;;;;;;5065894;28;20436;-68
2023/01/27 02:46:28;;;;;;;9.93;5.43;;;0.70;99.90;;;;;;5066847;28;20409;-69
2023/01/27 02:48:54;;;;;;;10.33;6.47;;;0.80;99.90;;;;;;5065446;28;20819;-69
2023/01/27 02:51:20;;;;;;;12.00;6.57;;;0.70;99.90;;;;;;5066294;28;20194;-69
2023/01/27 02:53:45;;;;;;;14.07;6.40;;;0.80;99.90;;;;;;5065224;28;20495;-70
2023/01/27 02:56:12;;;;;;;11.90;6.67;;;0.80;99.90;;;;;;5064386;28;20172;-68
2023/01/27 02:58:37;;;;;;;11.97;6.70;;;0.80;99.90;;;;;;5064914;28;20608;-68
2023/01/27 03:01:03;;;;;;;10.80;6.43;;;0.80;99.90;;;;;;5067068;28;20456;-70
2023/01/27 03:03:29;;;;;;;15.47;7.23;;;0.80;99.90;;;;;;5059028;28;20171;-69
2023/01/27 03:05:54;;;;;;;13.50;7.63;;;0.90;99.90;;;;;;5055588;28;20437;-69
2023/01/27 03:08:20;;;;;;;15.20;8.37;;;0.90;99.90;;;;;;5065610;28;20202;-70
2023/01/27 03:10:50;;;;;;;11.80;6.73;;;0.90;99.90;;;;;;5062450;28;20229;-70
2023/01/27 03:13:20;;;;;;;16.37;7.77;;;0.90;99.90;;;;;;5060586;28;20585;-68
2023/01/27 03:18:30;;;;;;;8.73;6.10;;;0.90;99.90;;;;;;5060684;28;20436;-70
2023/01/27 03:21:01;;;;;;;12.07;6.00;;;0.80;99.90;;;;;;5058332;28;20444;-69
2023/01/27 03:23:27;;;;;;;13.43;6.60;;;0.80;99.90;;;;;;5054699;28;20202;-69
2023/01/27 03:25:52;;;;;;;14.00;6.63;;;0.90;99.90;;;;;;5062981;28;20889;-69
2023/01/27 03:28:18;;;;;;;11.37;6.87;;;0.90;99.90;;;;;;5071687;28;20209;-69
2023/01/27 03:30:43;;;;;;;10.60;5.87;;;1.00;99.90;;;;;;5067331;28;20202;-69
2023/01/27 03:33:09;;;;;;;13.00;7.20;;;0.90;99.90;;;;;;5070508;28;20173;-68
2023/01/27 03:35:47;;;;;;;13.27;5.97;;;0.90;99.90;;;;;;5064169;28;20169;-69
2023/01/27 03:46:26;;;;;;;12.17;6.10;;;1.10;99.90;;;;;;5057262;28;20486;-68
2023/01/27 03:48:54;;;;;;;6.77;4.93;;;1.10;99.90;;;;;;5058965;28;20453;-68
2023/01/27 03:51:22;;;;;;;9.47;6.53;;;1.10;99.90;;;;;;5055778;28;20247;-68
2023/01/27 03:53:48;;;;;;;9.50;6.00;;;1.10;99.90;;;;;;5059835;28;20439;-68
2023/01/27 03:56:15;;;;;;;10.60;5.93;;;1.20;99.90;;;;;;5057883;28;20425;-68
2023/01/27 03:58:42;;;;;;;13.57;6.00;;;1.20;99.90;;;;;;5055631;28;20205;-67
2023/01/27 04:01:22;;;;;;;9.40;6.30;;;1.20;99.90;;;;;;5063920;28;20555;-68
2023/01/27 04:06:55;;;;;;;7.63;6.03;;;1.20;99.90;;;;;;5062960;28;20971;-69
2023/01/27 04:09:28;;;;;;;9.63;5.33;;;1.20;99.90;;;;;;5064140;28;20463;-69
2023/01/27 04:11:57;;;;;;;11.17;6.37;;;1.20;99.90;;;;;;5062100;28;20642;-68
2023/01/27 04:14:27;;;;;;;13.03;6.33;;;1.10;99.90;;;;;;5064598;28;20428;-67
2023/01/27 04:16:56;;;;;;;9.80;5.23;;;1.20;99.90;;;;;;5065068;28;20416;-68
2023/01/27 04:19:21;;;;;;;12.43;6.10;;;1.20;99.90;;;;;;5065199;28;20453;-68
2023/01/27 04:21:48;;;;;;;10.90;4.80;;;1.20;99.90;;;;;;5062196;28;20433;-68
2023/01/27 04:24:23;;;;;;;5.90;4.10;;;1.20;99.90;;;;;;5066973;28;20171;-68
2023/01/27 04:26:55;;;;;;;6.47;5.40;;;1.10;99.90;;;;;;5063230;28;20485;-67
2023/01/27 04:29:23;;;;;;;12.73;5.03;;;1.20;99.90;;;;;;5060837;28;20460;-68
2023/01/27 04:31:49;;;;;;;10.23;5.70;;;1.30;99.90;;;;;;5062781;28;20440;-67
2023/01/27 04:34:15;;;;;;;9.87;5.17;;;1.20;99.90;;;;;;5068202;28;20801;-68
2023/01/27 04:36:41;;;;;;;8.70;4.80;;;1.30;99.90;;;;;;5058485;28;20424;-68
2023/01/27 04:39:07;;;;;;;11.53;6.83;;;1.20;99.90;;;;;;5064576;28;20429;-68
2023/01/27 04:41:33;;;;;;;12.17;5.30;;;1.30;99.90;;;;;;5063004;28;20770;-68
2023/01/27 04:43:59;;;;;;;11.30;6.43;;;1.30;99.90;;;;;;5061909;28;20437;-68
2023/01/27 04:46:25;;;;;;;11.57;5.67;;;1.30;99.90;;;;;;5064587;28;20594;-68
2023/01/27 04:48:50;;;;;;;9.93;6.07;;;1.30;99.90;;;;;;5063531;28;20200;-68
2023/01/27 04:51:16;;;;;;;9.00;5.27;;;1.20;99.90;;;;;;5064988;28;20200;-68
2023/01/27 04:53:42;;;;;;;14.90;5.60;;;1.30;99.90;;;;;;5062120;28;23257;-69
2023/01/27 04:56:17;;;;;;;12.43;6.67;;;1.30;99.90;;;;;;5063847;28;20170;-71
2023/01/27 04:58:42;;;;;;;13.53;4.87;;;1.30;99.90;;;;;;5063376;28;20974;-68
2023/01/27 05:01:08;;;;;;;15.70;5.90;;;1.30;99.90;;;;;;5061404;28;20459;-69
2023/01/27 05:03:33;;;;;;;9.53;6.47;;;1.30;99.90;;;;;;5063387;28;20941;-69
2023/01/27 05:05:59;;;;;;;8.63;3.90;;;1.40;99.90;;;;;;5064611;28;20178;-68
2023/01/27 05:08:24;;;;;;;8.00;5.10;;;1.40;99.90;;;;;;5061119;28;20190;-69
2023/01/27 05:10:51;;;;;;;8.73;4.37;;;1.40;99.90;;;;;;5060100;28;20572;-69
2023/01/27 05:13:17;;;;;;;9.17;4.67;;;1.40;99.90;;;;;;5068709;28;20551;-69
2023/01/27 05:15:43;;;;;;;11.57;5.67;;;1.40;99.90;;;;;;5063294;28;20424;-68
2023/01/27 05:18:08;;;;;;;8.80;5.60;;;1.40;99.90;;;;;;5063013;28;20273;-69
2023/01/27 05:20:34;;;;;;;10.53;4.63;;;1.50;99.90;;;;;;5061365;28;20559;-69
2023/01/27 05:25:44;;;;;;;8.37;3.73;;;1.50;99.90;;;;;;5067970;28;20189;-68
2023/01/27 05:28:10;;;;;;;9.53;5.40;;;1.30;99.90;;;;;;5065465;28;20480;-69
2023/01/27 05:30:35;;;;;;;8.13;4.43;;;1.40;99.90;;;;;;5065756;28;20460;-68
2023/01/27 05:33:01;;;;;;;10.50;5.90;;;1.40;99.90;;;;;;5070018;28;20418;-69
2023/01/27 05:35:27;;;;;;;8.33;4.57;;;1.40;99.90;;;;;;5065343;28;20188;-70
2023/01/27 05:37:53;;;;;;;8.73;5.17;;;1.40;99.90;;;;;;5071914;28;20166;-67
2023/01/27 05:40:18;;;;;;;8.27;4.83;;;1.40;99.90;;;;;;5070090;28;20281;-68
2023/01/27 05:42:44;;;;;;;8.53;5.43;;;1.40;99.90;;;;;;5068853;28;20167;-68
2023/01/27 05:45:09;;;;;;;12.50;5.70;;;1.40;99.90;;;;;;5064634;28;20709;-68
2023/01/27 05:47:35;;;;;;;9.63;4.10;;;1.40;99.90;;;;;;5063008;28;20174;-68
2023/01/27 05:50:00;;;;;;;8.43;4.50;;;1.40;99.90;;;;;;5062788;28;20206;-68
2023/01/27 05:52:26;;;;;;;9.00;3.93;;;1.40;99.90;;;;;;5060366;28;20183;-70
2023/01/27 05:54:52;;;;;;;10.17;4.67;;;1.50;99.90;;;;;;5061273;28;20171;-68
2023/01/27 05:57:17;;;;;;;9.63;4.70;;;1.40;99.90;;;;;;5059605;28;20194;-69
2023/01/27 05:59:43;;;;;;;10.73;4.90;;;1.50;99.90;;;;;;5065087;28;20229;-68
2023/01/27 06:02:08;;;;;;;7.40;4.13;;;1.40;99.90;;;;;;5064453;28;20174;-70
2023/01/27 06:04:34;;;;;;;10.20;5.67;;;1.40;99.90;;;;;;5058700;28;20171;-69
2023/01/27 06:06:59;;;;;;;4.60;3.53;;;1.40;99.90;;;;;;5064668;28;20239;-69
2023/01/27 06:09:25;;;;;;;8.33;4.37;;;1.50;99.90;;;;;;5069281;28;20194;-68
2023/01/27 06:11:51;;;;;;;6.43;4.20;;;1.40;99.90;;;;;;5070557;28;20182;-70
2023/01/27 06:14:18;;;;;;;6.90;3.73;;;1.40;99.90;;;;;;5063773;28;20214;-69
2023/01/27 06:16:46;;;;;;;8.07;4.57;;;1.40;99.90;;;;;;5058431;28;20267;-68
2023/01/27 06:19:12;;;;;;;8.27;4.83;;;1.50;99.90;;;;;;5060592;28;20433;-68
2023/01/27 06:21:37;;;;;;;6.57;3.50;;;1.50;99.90;;;;;;5059280;28;20420;-68
2023/01/27 06:24:03;;;;;;;7.63;3.70;;;1.50;99.90;;;;;;5060678;28;20435;-68
2023/01/27 06:26:29;;;;;;;4.43;3.50;;;1.50;99.90;;;;;;5065567;28;20232;-69
2023/01/27 06:28:55;;;;;;;8.07;3.97;;;1.50;99.90;;;;;;5063072;28;20841;-68
2023/01/27 06:31:21;;;;;;;5.87;3.60;;;1.50;99.90;;;;;;5048700;28;20214;-69
2023/01/27 06:33:47;;;;;;;7.57;4.47;;;1.60;99.90;;;;;;5064520;28;20486;-69
2023/01/27 06:36:15;;;;;;;5.60;3.90;;;1.50;99.90;;;;;;5060410;28;20178;-67
2023/01/27 06:38:41;;;;;;;9.93;5.60;;;1.60;99.90;;;;;;5063941;28;20678;-67
2023/01/27 06:41:07;;;;;;;9.30;4.57;;;1.60;99.90;;;;;;5065591;28;20816;-69
2023/01/27 06:43:33;;;;;;;8.60;4.37;;;1.60;99.90;;;;;;5062394;28;20509;-68
2023/01/27 06:45:59;;;;;;;9.73;4.80;;;1.60;99.90;;;;;;5063480;28;20901;-68
2023/01/27 06:48:25;;;;;;;6.30;3.87;;;1.60;99.90;;;;;;5062119;28;20574;-68
2023/01/27 06:50:52;;;;;;;8.70;4.17;;;1.50;99.90;;;;;;5062632;28;20841;-68
2023/01/27 06:53:17;;;;;;;7.33;4.43;;;1.60;99.90;;;;;;5062429;28;20440;-69
2023/01/27 06:55:44;;;;;;;8.40;3.67;;;1.60;99.90;;;;;;5060228;28;20478;-67
2023/01/27 06:58:11;;;;;;;7.27;5.23;;;1.60;99.90;;;;;;5062745;28;20261;-67
2023/01/27 07:00:38;;;;;;;7.40;4.50;;;1.50;99.90;;;;;;5059905;28;20471;-68
2023/01/27 07:03:04;;;;;;;11.10;5.40;;;1.50;99.90;;;;;;5060419;28;20432;-68
2023/01/27 07:05:33;;;;;;;13.10;5.10;;;1.60;99.90;;;;;;5062475;28;20432;-67
2023/01/27 07:08:00;;;;;;;11.67;5.93;;;1.60;99.90;;;;;;5058067;28;20474;-69
2023/01/27 07:10:26;;;;;;;12.10;6.30;;;1.60;99.90;;;;;;5056439;28;20449;-68
2023/01/27 07:13:02;;;;;;;9.63;5.13;;;1.60;99.90;;;;;;5063767;28;20540;-68
2023/01/27 07:15:29;;;;;;;12.03;6.53;;;1.60;99.90;;;;;;5062579;28;20432;-68
2023/01/27 07:17:57;;;;;;;8.90;5.23;;;1.70;99.90;;;;;;5062065;28;20437;-68
2023/01/27 07:20:26;;;;;;;13.10;5.23;;;1.60;99.90;;;;;;5057842;28;20458;-69
2023/01/27 07:22:52;;;;;;;11.13;7.30;;;1.70;99.90;;;;;;5059308;28;20498;-69
2023/01/27 07:25:18;;;;;;;15.73;7.30;;;1.80;99.90;;;;;;5063163;28;20436;-68
2023/01/27 07:27:43;;;;;;;9.70;6.30;;;1.80;99.90;;;;;;5069671;28;20185;-69
2023/01/27 07:30:10;;;;;;;16.60;6.50;;;1.80;99.90;;;;;;5066320;28;20213;-68
2023/01/27 07:32:36;;;;;;;10.07;6.13;;;1.80;99.90;;;;;;5070587;28;20181;-69
2023/01/27 07:35:01;;;;;;;9.53;5.70;;;1.80;99.90;;;;;;5067452;28;20503;-68
2023/01/27 07:37:27;;;;;;;11.83;6.50;;;1.80;99.90;;;;;;5071658;28;20637;-69
2023/01/27 07:39:52;;;;;;;14.80;6.60;;;1.80;99.90;;;;;;5069151;28;20202;-68
2023/01/27 07:42:18;;;;;;;17.13;7.20;;;1.90;99.90;;;;;;5062304;28;20236;-69
2023/01/27 07:44:44;;;;;;;14.63;6.97;;;1.90;99.90;;;;;;5059690;28;20186;-69
2023/01/27 07:47:09;;;;;;;12.43;6.87;;;2.00;99.90;;;;;;5057020;28;20194;-69
2023/01/27 07:49:35;;;;;;;17.30;6.00;;;2.00;99.90;;;;;;5060829;28;20510;-68
2023/01/27 07:52:00;;;;;;;15.80;6.30;;;2.00;99.90;;;;;;5055990;28;20261;-68
2023/01/27 07:54:26;;;;;;;14.47;6.87;;;2.00;99.90;;;;;;5058314;28;20885;-68
2023/01/27 07:56:51;;;;;;;11.43;5.33;;;2.00;99.90;;;;;;5058396;28;20175;-69
2023/01/27 07:59:17;;;;;;;9.10;5.50;;;2.10;99.90;;;;;;5058602;28;20185;-69
2023/01/27 08:01:43;;;;;;;12.23;5.30;;;2.20;99.90;;;;;;5066291;28;20182;-69
2023/01/27 08:04:08;;;;;;;7.27;5.60;;;2.10;99.90;;;;;;5060859;28;20614;-67
2023/01/27 08:06:36;;;;;;;7.93;4.97;;;2.20;99.90;;;;;;5060021;28;20545;-69
2023/01/27 08:09:02;;;;;;;9.70;5.83;;;2.20;99.90;;;;;;5058491;28;20297;-68
2023/01/27 08:11:27;;;;;;;13.40;5.90;;;2.30;99.90;;;;;;5057984;28;20544;-68
2023/01/27 08:13:53;;;;;;;8.10;5.53;;;2.30;99.90;;;;;;5062168;28;20179;-68
2023/01/27 08:16:18;;;;;;;9.93;5.93;;;2.40;99.90;;;;;;5058443;28;20189;-68
2023/01/27 08:18:44;;;;;;;15.50;5.47;;;2.40;99.90;;;;;;5066019;28;20633;-69
2023/01/27 08:21:11;;;;;;;7.97;5.90;;;2.40;99.90;;;;;;5054107;28;20210;-68
2023/01/27 08:23:37;;;;;;;11.97;6.00;;;2.40;99.90;;;;;;5062685;28;20604;-68
2023/01/27 08:26:04;;;;;;;14.27;6.87;;;2.50;99.90;;;;;;5064506;28;20445;-69
2023/01/27 08:28:32;;;;;;;15.80;5.87;;;2.50;99.90;;;;;;5059051;28;20252;-72
2023/01/27 08:31:06;;;;;;;8.13;5.30;;;2.60;99.90;;;;;;5062165;28;20479;-67
2023/01/27 08:33:31;;;;;;;16.57;6.50;;;2.60;99.90;;;;;;5060901;28;20558;-69
2023/01/27 08:36:02;;;;;;;11.93;6.13;;;2.70;99.90;;;;;;5068931;28;20479;-69
2023/01/27 08:38:28;;;;;;;6.37;5.13;;;2.70;99.90;;;;;;5069909;28;20754;-68
2023/01/27 08:40:54;;;;;;;8.47;5.57;;;2.70;99.90;;;;;;5069733;28;20544;-71
2023/01/27 08:43:20;;;;;;;10.83;6.10;;;2.70;99.90;;;;;;5063996;28;20953;-70
2023/01/27 08:45:46;;;;;;;12.43;6.90;;;2.80;99.90;;;;;;5062208;28;20264;-69
2023/01/27 08:48:11;;;;;;;9.40;6.23;;;2.80;99.90;;;;;;5069701;28;20292;-69
2023/01/27 08:50:37;;;;;;;10.73;6.27;;;2.90;99.90;;;;;;5065622;28;20187;-67
2023/01/27 08:53:03;;;;;;;12.20;5.70;;;2.80;99.90;;;;;;5068085;28;20170;-68
2023/01/27 08:55:31;;;;;;;11.37;7.23;;;2.90;99.90;;;;;;5067251;28;20232;-67
2023/01/27 08:57:57;;;;;;;10.60;6.20;;;2.90;99.90;;;;;;5071004;28;20950;-67
2023/01/27 09:00:22;;;;;;;7.60;6.50;;;3.00;99.90;;;;;;5072358;28;20450;-67
2023/01/27 09:02:51;;;;;;;8.73;5.77;;;3.00;99.90;;;;;;5070096;28;20179;-67
2023/01/27 09:05:18;;;;;;;8.93;5.87;;;3.00;99.90;;;;;;5074156;28;20580;-69
2023/01/27 09:07:45;;;;;;;10.33;6.37;;;3.10;99.90;;;;;;5070982;28;20413;-67
2023/01/27 09:10:11;;;;;;;7.93;5.57;;;3.10;99.90;;;;;;5065662;28;20468;-66
2023/01/27 09:12:37;;;;;;;9.07;5.20;;;3.10;99.90;;;;;;5061843;28;20437;-67
2023/01/27 09:15:03;;;;;;;5.53;4.97;;;3.10;99.90;;;;;;5065924;28;20474;-68
2023/01/27 09:17:28;;;;;;;7.20;4.67;;;3.20;99.90;;;;;;5063102;28;20183;-66
2023/01/27 09:19:54;;;;;;;5.50;4.70;;;3.10;99.90;;;;;;5063253;28;20568;-67
2023/01/27 09:22:19;;;;;;;6.57;5.00;;;3.20;99.90;;;;;;5066941;28;20186;-68
2023/01/27 09:24:45;;;;;;;9.00;4.77;;;3.20;99.90;;;;;;5060082;28;20257;-69
2023/01/27 09:27:11;;;;;;;4.57;4.07;;;3.10;99.90;;;;;;5069673;28;20660;-68
2023/01/27 09:29:38;;;;;;;6.53;4.23;;;3.10;99.90;;;;;;5068773;28;20464;-67
2023/01/27 09:32:04;;;;;;;6.70;4.50;;;3.10;99.90;;;;;;5059265;28;20240;-67
2023/01/27 09:34:29;;;;;;;8.40;5.20;;;3.10;99.90;;;;;;5060543;28;20445;-68
2023/01/27 09:37:03;;;;;;;8.40;5.20;;;3.20;99.90;;;;;;5059031;28;20421;-68
2023/01/27 09:39:31;;;;;;;7.87;5.60;;;3.20;99.90;;;;;;5061741;28;20225;-69
2023/01/27 09:42:21;;;;;;;5.13;4.00;;;3.20;99.90;;;;;;5063802;28;20425;-68
2023/01/27 09:45:35;;;;;;;6.97;4.70;;;3.20;99.90;;;;;;5062674;28;20440;-68
2023/01/27 09:48:00;;;;;;;7.87;5.50;;;3.30;99.90;;;;;;5069968;28;20400;-67
2023/01/27 09:50:32;;;;;;;7.80;5.00;;;3.30;99.90;;;;;;5059995;28;20815;-68
2023/01/27 09:53:37;;;;;;;7.57;4.90;;;3.30;99.90;;;;;;5073354;28;20174;-68
2023/01/27 09:56:08;;;;;;;8.67;5.30;;;3.30;99.90;;;;;;5060039;28;20956;-67
2023/01/27 09:59:09;;;;;;;7.83;5.03;;;3.30;99.90;;;;;;5069932;28;20470;-66
2023/01/27 10:01:38;;;;;;;5.37;4.20;;;3.30;99.90;;;;;;5026884;28;20425;-66
2023/01/27 10:04:06;;;;;;;7.07;4.53;;;3.30;99.90;;;;;;5058593;28;20781;-67
2023/01/27 10:07:13;;;;;;;6.10;4.17;;;3.30;99.90;;;;;;5066285;28;20415;-68
2023/01/27 10:10:01;;;;;;;7.63;5.80;;;3.30;99.90;;;;;;5069114;28;20498;-68
2023/01/27 10:12:41;;;;;;;7.50;4.83;;;3.30;99.90;;;;;;5057567;28;20431;-68
2023/01/27 10:15:30;;;;;;;6.20;5.00;;;3.30;99.90;;;;;;5057121;28;20408;-66
2023/01/27 10:17:56;;;;;;;5.40;3.97;;;3.40;99.90;;;;;;5066490;28;20488;-68
2023/01/27 10:20:46;;;;;;;6.47;3.93;;;3.40;99.90;;;;;;5071426;28;20516;-66
2023/01/27 10:23:28;;;;;;;5.33;4.10;;;3.40;99.90;;;;;;5067807;28;20162;-67
2023/01/27 10:26:13;;;;;;;7.57;5.13;;;3.40;99.90;;;;;;5068550;28;20437;-64
2023/01/27 10:28:46;;;;;;;9.03;5.50;;;3.50;99.90;;;;;;5059283;28;20456;-64
2023/01/27 10:31:25;;;;;;;9.73;4.27;;;3.40;99.90;;;;;;5057011;28;20506;-67
2023/01/27 10:33:52;;;;;;;6.90;4.77;;;3.50;99.90;;;;;;5058329;28;20797;-67
2023/01/27 10:36:36;;;;;;;6.00;4.40;;;3.40;99.90;;;;;;5058926;28;20956;-67
2023/01/27 10:39:02;;;;;;;5.93;4.13;;;3.50;99.90;;;;;;5060140;28;20425;-68
2023/01/27 10:42:05;;;;;;;7.50;4.03;;;3.50;99.90;;;;;;5062360;28;20444;-67
2023/01/27 10:45:02;;;;;;;5.70;3.87;;;3.50;99.90;;;;;;5063262;28;20516;-67
2023/01/27 10:47:41;;;;;;;4.60;3.87;;;3.50;99.90;;;;;;5062269;28;20436;-66
2023/01/27 10:50:16;;;;;;;7.50;3.50;;;3.50;99.90;;;;;;5058178;28;20468;-66
2023/01/27 10:52:47;;;;;;;7.40;4.43;;;3.60;99.90;;;;;;5058925;28;20424;-68
2023/01/27 10:55:36;;;;;;;4.43;3.90;;;3.50;99.90;;;;;;5059597;28;20791;-66
2023/01/27 10:58:22;;;;;;;4.83;4.13;;;3.60;99.90;;;;;;5059515;28;20429;-66
2023/01/27 11:00:50;;;;;;;7.50;3.87;;;3.60;99.90;;;;;;5045120;28;20861;-66
2023/01/27 11:03:22;;;;;;;8.60;4.13;;;3.60;99.90;;;;;;5055640;28;20491;-67
2023/01/27 11:05:52;;;;;;;3.33;3.00;;;3.70;99.90;;;;;;5063258;28;20436;-67
2023/01/27 11:08:22;;;;;;;5.17;3.77;;;3.70;99.90;;;;;;5056054;28;20460;-66
2023/01/27 11:13:37;;;;;;;6.27;4.10;;;3.70;99.90;;;;;;5064544;28;20764;-68
2023/01/27 11:16:06;;;;;;;7.23;3.30;;;3.80;99.90;;;;;;5059713;28;20439;-67
2023/01/27 11:18:36;;;;;;;6.27;3.40;;;3.70;99.90;;;;;;5060907;28;20435;-67
2023/01/27 11:21:05;;;;;;;4.17;2.87;;;3.70;99.90;;;;;;5058699;28;20929;-66
2023/01/27 11:23:42;;;;;;;3.67;3.37;;;3.70;99.90;;;;;;5056886;28;20494;-67
2023/01/27 11:26:17;;;;;;;8.03;3.50;;;3.80;99.90;;;;;;5062769;28;20792;-66
2023/01/27 11:29:24;;;;;;;4.43;4.03;;;3.80;99.90;;;;;;5062885;28;20472;-67
2023/01/27 11:31:56;;;;;;;12.00;3.80;;;3.80;99.90;;;;;;5041118;28;20474;-67
2023/01/27 11:34:35;;;;;;;4.47;3.43;;;3.80;99.90;;;;;;5063410;28;20840;-67
2023/01/27 11:37:14;;;;;;;5.60;3.03;;;3.80;99.90;;;;;;5070632;28;20454;-67
2023/01/27 11:39:40;;;;;;;3.50;3.20;;;3.80;99.90;;;;;;5061722;28;20440;-66
2023/01/27 11:42:08;;;;;;;4.60;3.57;;;3.80;99.90;;;;;;5070365;28;20420;-67
2023/01/27 11:44:35;;;;;;;4.10;3.37;;;3.80;99.90;;;;;;5071273;28;20186;-67
2023/01/27 11:47:02;;;;;;;3.67;2.90;;;3.80;99.90;;;;;;5065378;28;20786;-67
2023/01/27 11:49:36;;;;;;;5.17;3.50;;;3.90;99.90;;;;;;5070940;28;20547;-67
2023/01/27 11:52:10;;;;;;;6.20;3.00;;;3.80;99.90;;;;;;5063781;28;20402;-66
2023/01/27 11:54:48;;;;;;;5.30;3.87;;;3.80;99.90;;;;;;5071152;28;20412;-67
2023/01/27 11:57:19;;;;;;;5.80;3.67;;;3.90;99.90;;;;;;5060881;28;20605;-68
2023/01/27 11:59:47;;;;;;;8.53;4.50;;;3.90;99.90;;;;;;5065820;28;20428;-67
2023/01/27 12:02:40;;;;;;;6.70;5.10;;;3.90;99.90;;;;;;5066287;28;20496;-67
2023/01/27 12:05:06;;;;;;;5.17;4.07;;;3.90;99.90;;;;;;5062876;28;20404;-68
2023/01/27 12:07:45;;;;;;;4.23;3.63;;;4.00;99.90;;;;;;5064960;28;20508;-68
2023/01/27 12:10:43;;;;;;;4.60;4.10;;;4.00;99.90;;;;;;5058816;28;20623;-67
2023/01/27 12:13:19;;;;;;;4.10;3.70;;;3.90;99.90;;;;;;5053706;28;20414;-68
2023/01/27 12:15:52;;;;;;;6.80;4.40;;;3.80;99.90;;;;;;5067798;28;20404;-68
2023/01/27 12:18:18;;;;;;;15.00;4.43;;;3.80;99.90;;;;;;5071120;28;20397;-68
2023/01/27 12:20:56;;;;;;;5.87;5.10;;;3.80;99.90;;;;;;5066285;28;20439;-67
2023/01/27 12:23:31;;;;;;;5.97;4.10;;;3.80;99.90;;;;;;5064952;28;20215;-67
2023/01/27 12:25:59;;;;;;;5.63;3.83;;;3.70;99.90;;;;;;5068024;28;20404;-68
2023/01/27 12:28:33;;;;;;;4.60;3.67;;;3.70;99.90;;;;;;5060675;28;20464;-67
2023/01/27 12:31:09;;;;;;;5.83;4.40;;;3.60;99.90;;;;;;5073061;28;20850;-67
2023/01/27 12:33:37;;;;;;;9.93;4.30;;;3.60;99.90;;;;;;5069781;28;20542;-67
2023/01/27 12:36:22;;;;;;;5.20;3.93;;;3.60;99.90;;;;;;5072383;28;20427;-67
2023/01/27 12:38:57;;;;;;;13.73;4.27;;;3.60;99.90;;;;;;5068864;28;20404;-66
2023/01/27 12:41:31;;;;;;;7.73;4.03;;;3.60;99.90;;;;;;5074229;28;20551;-67
2023/01/27 12:44:15;;;;;;;3.93;3.63;;;3.50;99.90;;;;;;5073589;28;20495;-66
2023/01/27 12:46:57;;;;;;;7.50;4.73;;;3.50;99.90;;;;;;5070305;28;20404;-68
2023/01/27 12:49:29;;;;;;;5.47;3.93;;;3.50;99.90;;;;;;5068355;28;20491;-67
2023/01/27 12:51:55;;;;;;;4.43;3.37;;;3.50;99.90;;;;;;5067091;28;20404;-67
2023/01/27 12:54:26;;;;;;;4.33;3.70;;;3.50;99.90;;;;;;5073669;28;20458;-67
2023/01/27 12:56:53;;;;;;;6.47;3.37;;;3.50;99.90;;;;;;5066485;28;20170;-67
2023/01/27 12:59:24;;;;;;;3.83;3.20;;;3.50;99.90;;;;;;5071773;28;20408;-66
2023/01/27 13:02:11;;;;;;;6.43;3.27;;;3.50;99.90;;;;;;5072426;28;20423;-68
2023/01/27 13:04:37;;;;;;;7.60;3.80;;;3.50;99.90;;;;;;5063691;28;20478;-67
2023/01/27 13:07:05;;;;;;;4.10;3.70;;;3.40;99.90;;;;;;5070305;28;20454;-67
2023/01/27 13:09:51;;;;;;;4.73;2.97;;;3.40;99.90;;;;;;5071027;28;20782;-67
2023/01/27 13:12:22;;;;;;;3.77;2.63;;;3.30;99.90;;;;;;5062429;28;20414;-67
2023/01/27 13:14:55;;;;;;;6.73;3.13;;;3.30;99.90;;;;;;5068479;28;20549;-67
2023/01/27 13:17:48;;;;;;;3.20;2.90;;;3.30;99.90;;;;;;5072996;28;20412;-66
2023/01/27 13:20:28;;;;;;;4.73;2.90;;;3.30;99.90;;;;;;5061368;28;20440;-66
2023/01/27 13:23:17;;;;;;;6.80;3.50;;;3.30;99.90;;;;;;5073749;28;20424;-67
2023/01/27 13:26:08;;;;;;;6.20;3.90;;;3.20;99.90;;;;;;5070449;28;20442;-66
2023/01/27 13:28:58;;;;;;;3.90;3.00;;;3.20;99.90;;;;;;5068111;28;20456;-66
2023/01/27 13:32:04;;;;;;;3.90;3.03;;;3.10;99.90;;;;;;5068172;28;20491;-66
2023/01/27 13:34:53;;;;;;;15.07;3.23;;;3.10;99.90;;;;;;5069159;28;20405;-67
2023/01/27 13:37:27;;;;;;;4.00;2.87;;;3.20;99.90;;;;;;5073564;28;20437;-66